Terminal Aerodrome Forecast
Issued by NWS Bismarck, ND

Home | Current Version | Previous Version | Text Only | Print | Product List | Glossary On
Versions: 1 2 3 4 5 6 7 8 9 10 11 12 13
000
FTUS43 KBIS 011100
TAFBIS
TAF
KBIS 011130Z 0112/0212 06005KT P6SM SCT090
     FM011600 11010KT P6SM SCT060
     FM020200 09006KT P6SM SCT080=

USA.gov is the U.S. government's official web portal to all federal, state and local government web resources and services.